Sign-in with your pilot id or email, or register

ICAO: DIAP Name / Country: Abidjan / Ivory Coast
Latitude: 5.26139 Longitude: -3.92629
Total Arrivals:
Strict Standards: Non-static method AirportData::getarrflights() should not be called statically, assuming $this from incompatible context in /var/www/customers/vh-7192/web/home/phpvms/core/templates/airport_info.tpl on line 18
1
Total Departures:
Strict Standards: Non-static method AirportData::getdeptflights() should not be called statically, assuming $this from incompatible context in /var/www/customers/vh-7192/web/home/phpvms/core/templates/airport_info.tpl on line 21
1
Latest Arrival: MTA5PM (FKKD-DIAP) Tibor Berces Latest Departure: MTA5PM (DIAP-GABS) Tibor Berces
Metar: DIAP 271030Z 22011KT 9999 SCT013 28/24 Q1013 NOSIG
More info

Charts for DIAP


NOTAM


Warning: file_get_contents(http://api.vateud.net/notams/DIAP.json): failed to open stream: Redirection limit reached, aborting in /var/www/customers/vh-7192/web/home/phpvms/core/common/NOTAMSData.class.php on line 18

Warning: Invalid argument supplied for foreach() in /var/www/customers/vh-7192/web/home/phpvms/core/common/NOTAMSData.class.php on line 22

Abidjan